Terminal Aerodrome Forecast
Issued by NWS

Home | Current Version | Previous Version | Text Only | Print | Product List | Glossary On
Versions: 1 2 3 4 5 6 7 8 9 10 11 12 13 14 15 16 17 18 19 20 21 22
000
FTUS42 KTBW 271100
TAFRSW
TAF
KRSW 271120Z 2712/2812 02009KT P6SM SCT012 OVC030
      TEMPO 2712/2714 BKN012
     FM271800 04012KT P6SM VCSH SCT015 OVC035
     FM280100 05011KT P6SM SCT015 BKN025
     FM280400 04011KT P6SM SCT007 BKN015=

USA.gov is the U.S. government's official web portal to all federal, state and local government web resources and services.